sensor_id;sensor_type;location;lat;lon;timestamp;pressure;altitude;pressure_sealevel;temperature;humidity
36014;BME280;22275;43.208;27.620;2023-09-19T00:01:42;101680.97;;;20.29;100.00
36014;BME280;22275;43.208;27.620;2023-09-19T00:04:12;101685.31;;;19.78;100.00
36014;BME280;22275;43.208;27.620;2023-09-19T00:06:40;101682.09;;;19.63;100.00
36014;BME280;22275;43.208;27.620;2023-09-19T00:09:08;101661.25;;;19.24;100.00
36014;BME280;22275;43.208;27.620;2023-09-19T00:11:36;101684.06;;;19.28;100.00
36014;BME280;22275;43.208;27.620;2023-09-19T00:14:04;101663.78;;;19.36;100.00
36014;BME280;22275;43.208;27.620;2023-09-19T00:16:34;101678.22;;;19.34;100.00
36014;BME280;22275;43.208;27.620;2023-09-19T00:19:02;101689.91;;;19.22;100.00
36014;BME280;22275;43.208;27.620;2023-09-19T00:21:33;101691.38;;;19.26;100.00
36014;BME280;22275;43.208;27.620;2023-09-19T00:24:00;101679.88;;;19.68;100.00
36014;BME280;22275;43.208;27.620;2023-09-19T00:26:27;101664.00;;;19.87;100.00
36014;BME280;22275;43.208;27.620;2023-09-19T00:28:55;101655.78;;;19.79;100.00
36014;BME280;22275;43.208;27.620;2023-09-19T00:31:30;101664.25;;;19.64;100.00
36014;BME280;22275;43.208;27.620;2023-09-19T00:33:57;101647.44;;;19.62;100.00
36014;BME280;22275;43.208;27.620;2023-09-19T00:36:28;101661.94;;;19.91;100.00
36014;BME280;22275;43.208;27.620;2023-09-19T00:38:57;101656.41;;;20.03;100.00
36014;BME280;22275;43.208;27.620;2023-09-19T00:41:24;101635.47;;;20.08;100.00
36014;BME280;22275;43.208;27.620;2023-09-19T00:43:52;101647.72;;;20.11;100.00
36014;BME280;22275;43.208;27.620;2023-09-19T00:46:19;101664.50;;;19.81;100.00
36014;BME280;22275;43.208;27.620;2023-09-19T00:48:47;101639.44;;;19.62;100.00
36014;BME280;22275;43.208;27.620;2023-09-19T00:51:15;101634.59;;;19.67;100.00
36014;BME280;22275;43.208;27.620;2023-09-19T00:53:45;101664.44;;;20.03;100.00
36014;BME280;22275;43.208;27.620;2023-09-19T00:56:15;101640.34;;;19.83;100.00
36014;BME280;22275;43.208;27.620;2023-09-19T00:58:44;101668.50;;;19.87;100.00
36014;BME280;22275;43.208;27.620;2023-09-19T01:01:12;101666.78;;;19.97;100.00
36014;BME280;22275;43.208;27.620;2023-09-19T01:03:40;101668.66;;;19.42;100.00
36014;BME280;22275;43.208;27.620;2023-09-19T01:06:08;101668.91;;;19.17;100.00
36014;BME280;22275;43.208;27.620;2023-09-19T01:08:35;101567.28;;;18.76;100.00
36014;BME280;22275;43.208;27.620;2023-09-19T01:11:10;101666.31;;;19.60;100.00
36014;BME280;22275;43.208;27.620;2023-09-19T01:13:49;101626.50;;;19.46;100.00
36014;BME280;22275;43.208;27.620;2023-09-19T01:16:32;101661.63;;;19.73;100.00
36014;BME280;22275;43.208;27.620;2023-09-19T01:19:10;101647.19;;;19.65;100.00
36014;BME280;22275;43.208;27.620;2023-09-19T01:21:46;101655.28;;;19.85;100.00
36014;BME280;22275;43.208;27.620;2023-09-19T01:24:41;101662.00;;;19.15;100.00
36014;BME280;22275;43.208;27.620;2023-09-19T01:27:43;101667.53;;;18.45;100.00
36014;BME280;22275;43.208;27.620;2023-09-19T01:30:24;101659.34;;;18.13;100.00
36014;BME280;22275;43.208;27.620;2023-09-19T01:32:55;101661.81;;;18.27;100.00
36014;BME280;22275;43.208;27.620;2023-09-19T01:35:23;101669.66;;;18.64;100.00
36014;BME280;22275;43.208;27.620;2023-09-19T01:37:50;101663.00;;;18.69;100.00
36014;BME280;22275;43.208;27.620;2023-09-19T01:40:20;101672.56;;;18.72;100.00
36014;BME280;22275;43.208;27.620;2023-09-19T01:42:54;101625.19;;;18.29;100.00
36014;BME280;22275;43.208;27.620;2023-09-19T01:45:33;101660.56;;;18.55;100.00
36014;BME280;22275;43.208;27.620;2023-09-19T01:48:09;101674.56;;;18.46;100.00
36014;BME280;22275;43.208;27.620;2023-09-19T01:50:44;101679.59;;;18.16;100.00
36014;BME280;22275;43.208;27.620;2023-09-19T01:53:21;101654.16;;;17.88;100.00
36014;BME280;22275;43.208;27.620;2023-09-19T01:55:51;101680.34;;;17.94;100.00
36014;BME280;22275;43.208;27.620;2023-09-19T02:01:07;101658.41;;;18.25;100.00
36014;BME280;22275;43.208;27.620;2023-09-19T02:03:36;101602.47;;;18.02;100.00
36014;BME280;22275;43.208;27.620;2023-09-19T02:06:05;101682.56;;;18.46;100.00
36014;BME280;22275;43.208;27.620;2023-09-19T02:08:37;101671.25;;;18.66;100.00
36014;BME280;22275;43.208;27.620;2023-09-19T02:11:05;101679.25;;;18.88;100.00
36014;BME280;22275;43.208;27.620;2023-09-19T02:13:34;101662.84;;;18.82;100.00
36014;BME280;22275;43.208;27.620;2023-09-19T02:16:01;101671.47;;;18.97;100.00
36014;BME280;22275;43.208;27.620;2023-09-19T02:18:31;101633.41;;;18.72;100.00
36014;BME280;22275;43.208;27.620;2023-09-19T02:21:00;101667.81;;;19.20;100.00
36014;BME280;22275;43.208;27.620;2023-09-19T02:23:27;101661.00;;;19.38;100.00
36014;BME280;22275;43.208;27.620;2023-09-19T02:25:55;101663.78;;;19.36;100.00
36014;BME280;22275;43.208;27.620;2023-09-19T02:28:23;101604.94;;;19.05;100.00
36014;BME280;22275;43.208;27.620;2023-09-19T02:30:55;101648.72;;;19.24;100.00
36014;BME280;22275;43.208;27.620;2023-09-19T02:33:23;101601.06;;;19.09;100.00
36014;BME280;22275;43.208;27.620;2023-09-19T02:35:54;101658.06;;;19.52;100.00
36014;BME280;22275;43.208;27.620;2023-09-19T02:38:23;101627.00;;;19.29;100.00
36014;BME280;22275;43.208;27.620;2023-09-19T02:40:51;101661.28;;;18.90;100.00
36014;BME280;22275;43.208;27.620;2023-09-19T02:43:20;101637.16;;;18.92;100.00
36014;BME280;22275;43.208;27.620;2023-09-19T02:45:48;101660.78;;;19.08;100.00
36014;BME280;22275;43.208;27.620;2023-09-19T02:48:16;101638.47;;;18.86;100.00
36014;BME280;22275;43.208;27.620;2023-09-19T02:50:44;101642.84;;;18.76;100.00
36014;BME280;22275;43.208;27.620;2023-09-19T02:53:13;101649.88;;;18.77;100.00
36014;BME280;22275;43.208;27.620;2023-09-19T02:55:40;101622.59;;;18.74;100.00
36014;BME280;22275;43.208;27.620;2023-09-19T02:58:09;101657.41;;;19.06;100.00
36014;BME280;22275;43.208;27.620;2023-09-19T03:00:37;101662.97;;;19.14;100.00
36014;BME280;22275;43.208;27.620;2023-09-19T03:03:04;101650.34;;;18.93;100.00
36014;BME280;22275;43.208;27.620;2023-09-19T03:05:34;101653.41;;;19.00;100.00
36014;BME280;22275;43.208;27.620;2023-09-19T03:08:04;101648.69;;;18.92;100.00
36014;BME280;22275;43.208;27.620;2023-09-19T03:10:33;101657.63;;;19.14;100.00
36014;BME280;22275;43.208;27.620;2023-09-19T03:13:01;101608.38;;;18.96;100.00
36014;BME280;22275;43.208;27.620;2023-09-19T03:15:28;101656.91;;;19.12;100.00
36014;BME280;22275;43.208;27.620;2023-09-19T03:17:56;101638.72;;;18.94;100.00
36014;BME280;22275;43.208;27.620;2023-09-19T03:20:24;101654.84;;;19.15;100.00
36014;BME280;22275;43.208;27.620;2023-09-19T03:22:53;101653.00;;;19.05;100.00
36014;BME280;22275;43.208;27.620;2023-09-19T03:25:20;101614.31;;;18.88;100.00
36014;BME280;22275;43.208;27.620;2023-09-19T03:27:50;101654.84;;;19.15;100.00
36014;BME280;22275;43.208;27.620;2023-09-19T03:30:20;101634.09;;;18.74;100.00
36014;BME280;22275;43.208;27.620;2023-09-19T03:32:48;101651.44;;;18.91;100.00
36014;BME280;22275;43.208;27.620;2023-09-19T03:35:16;101651.59;;;18.89;100.00
36014;BME280;22275;43.208;27.620;2023-09-19T03:37:43;101657.66;;;18.91;100.00
36014;BME280;22275;43.208;27.620;2023-09-19T03:40:11;101630.25;;;18.67;100.00
36014;BME280;22275;43.208;27.620;2023-09-19T03:42:39;101658.84;;;18.76;100.00
36014;BME280;22275;43.208;27.620;2023-09-19T03:45:09;101649.50;;;18.93;100.00
36014;BME280;22275;43.208;27.620;2023-09-19T03:47:38;101615.28;;;18.54;100.00
36014;BME280;22275;43.208;27.620;2023-09-19T03:50:06;101633.59;;;18.36;100.00
36014;BME280;22275;43.208;27.620;2023-09-19T03:52:34;101648.16;;;18.54;100.00
36014;BME280;22275;43.208;27.620;2023-09-19T03:55:01;101655.09;;;18.79;100.00
36014;BME280;22275;43.208;27.620;2023-09-19T03:57:30;101651.09;;;18.84;100.00
36014;BME280;22275;43.208;27.620;2023-09-19T03:59:57;101650.38;;;18.71;100.00
36014;BME280;22275;43.208;27.620;2023-09-19T04:02:26;101623.00;;;18.34;100.00
36014;BME280;22275;43.208;27.620;2023-09-19T04:04:59;101647.63;;;18.27;100.00
36014;BME280;22275;43.208;27.620;2023-09-19T04:07:26;101598.34;;;18.09;100.00
36014;BME280;22275;43.208;27.620;2023-09-19T04:09:54;101634.06;;;18.30;100.00
36014;BME280;22275;43.208;27.620;2023-09-19T04:12:21;101621.91;;;18.26;100.00
36014;BME280;22275;43.208;27.620;2023-09-19T04:14:49;101646.41;;;18.31;100.00
36014;BME280;22275;43.208;27.620;2023-09-19T04:17:17;101627.00;;;18.29;100.00
36014;BME280;22275;43.208;27.620;2023-09-19T04:19:45;101649.50;;;18.60;100.00
36014;BME280;22275;43.208;27.620;2023-09-19T04:22:12;101648.03;;;17.99;100.00
36014;BME280;22275;43.208;27.620;2023-09-19T04:24:40;101645.78;;;17.58;100.00
36014;BME280;22275;43.208;27.620;2023-09-19T04:27:07;101658.69;;;17.15;100.00
36014;BME280;22275;43.208;27.620;2023-09-19T04:29:35;101654.72;;;17.33;100.00
36014;BME280;22275;43.208;27.620;2023-09-19T04:32:04;101642.69;;;17.51;100.00
36014;BME280;22275;43.208;27.620;2023-09-19T04:34:31;101652.63;;;17.49;100.00
36014;BME280;22275;43.208;27.620;2023-09-19T04:37:01;101646.94;;;17.30;100.00
36014;BME280;22275;43.208;27.620;2023-09-19T04:39:29;101650.75;;;17.39;100.00
36014;BME280;22275;43.208;27.620;2023-09-19T04:41:56;101656.94;;;17.39;100.00
36014;BME280;22275;43.208;27.620;2023-09-19T04:44:25;101643.28;;;17.44;100.00
36014;BME280;22275;43.208;27.620;2023-09-19T04:46:52;101649.44;;;17.92;100.00
36014;BME280;22275;43.208;27.620;2023-09-19T04:49:19;101627.81;;;18.07;100.00
36014;BME280;22275;43.208;27.620;2023-09-19T04:51:46;101634.03;;;18.19;100.00
36014;BME280;22275;43.208;27.620;2023-09-19T04:54:15;101638.63;;;18.17;100.00
36014;BME280;22275;43.208;27.620;2023-09-19T04:56:43;101637.44;;;18.32;100.00
36014;BME280;22275;43.208;27.620;2023-09-19T04:59:10;101626.06;;;18.41;100.00
36014;BME280;22275;43.208;27.620;2023-09-19T05:01:38;101634.34;;;18.71;100.00
36014;BME280;22275;43.208;27.620;2023-09-19T05:04:05;101629.72;;;18.84;100.00
36014;BME280;22275;43.208;27.620;2023-09-19T05:06:32;101641.63;;;19.03;100.00
36014;BME280;22275;43.208;27.620;2023-09-19T05:09:01;101634.81;;;19.21;100.00
36014;BME280;22275;43.208;27.620;2023-09-19T05:11:32;101618.28;;;18.27;100.00
36014;BME280;22275;43.208;27.620;2023-09-19T05:13:59;101635.91;;;17.71;100.00
36014;BME280;22275;43.208;27.620;2023-09-19T05:16:29;101627.94;;;18.17;100.00
36014;BME280;22275;43.208;27.620;2023-09-19T05:18:57;101625.00;;;18.55;100.00
36014;BME280;22275;43.208;27.620;2023-09-19T05:21:25;101635.44;;;18.91;100.00
36014;BME280;22275;43.208;27.620;2023-09-19T05:23:54;101629.50;;;18.99;100.00
36014;BME280;22275;43.208;27.620;2023-09-19T05:26:22;101626.22;;;18.62;100.00
36014;BME280;22275;43.208;27.620;2023-09-19T05:28:51;101598.91;;;18.47;100.00
36014;BME280;22275;43.208;27.620;2023-09-19T05:31:19;101637.63;;;18.64;100.00
36014;BME280;22275;43.208;27.620;2023-09-19T05:33:46;101640.66;;;18.59;100.00
36014;BME280;22275;43.208;27.620;2023-09-19T05:36:14;101643.31;;;18.70;100.00
36014;BME280;22275;43.208;27.620;2023-09-19T05:38:42;101636.69;;;18.76;100.00
36014;BME280;22275;43.208;27.620;2023-09-19T05:41:10;101621.50;;;18.99;100.00
36014;BME280;22275;43.208;27.620;2023-09-19T05:43:39;101619.56;;;19.55;100.00
36014;BME280;22275;43.208;27.620;2023-09-19T05:46:08;101627.72;;;19.42;100.00
36014;BME280;22275;43.208;27.620;2023-09-19T05:48:35;101641.09;;;19.42;100.00
36014;BME280;22275;43.208;27.620;2023-09-19T05:51:05;101634.38;;;19.79;100.00
36014;BME280;22275;43.208;27.620;2023-09-19T05:53:32;101633.66;;;20.09;100.00
36014;BME280;22275;43.208;27.620;2023-09-19T05:56:00;101637.44;;;20.48;100.00
36014;BME280;22275;43.208;27.620;2023-09-19T05:58:27;101632.53;;;20.32;100.00
36014;BME280;22275;43.208;27.620;2023-09-19T06:00:55;101639.94;;;19.67;100.00
36014;BME280;22275;43.208;27.620;2023-09-19T06:03:24;101618.50;;;19.35;100.00
36014;BME280;22275;43.208;27.620;2023-09-19T06:05:51;101652.47;;;19.55;100.00
36014;BME280;22275;43.208;27.620;2023-09-19T06:08:23;101630.75;;;19.80;100.00
36014;BME280;22275;43.208;27.620;2023-09-19T06:10:51;101603.66;;;19.74;100.00
36014;BME280;22275;43.208;27.620;2023-09-19T06:13:18;101639.28;;;20.16;100.00
36014;BME280;22275;43.208;27.620;2023-09-19T06:15:46;101606.94;;;20.39;100.00
36014;BME280;22275;43.208;27.620;2023-09-19T06:18:13;101550.50;;;20.22;100.00
36014;BME280;22275;43.208;27.620;2023-09-19T06:20:46;101629.69;;;20.85;100.00
36014;BME280;22275;43.208;27.620;2023-09-19T06:23:14;101648.84;;;21.10;100.00
36014;BME280;22275;43.208;27.620;2023-09-19T06:25:41;101616.50;;;21.02;100.00
36014;BME280;22275;43.208;27.620;2023-09-19T06:28:09;101639.25;;;21.17;100.00
36014;BME280;22275;43.208;27.620;2023-09-19T06:30:46;101600.47;;;21.12;100.00
36014;BME280;22275;43.208;27.620;2023-09-19T06:33:15;101602.47;;;21.19;100.00
36014;BME280;22275;43.208;27.620;2023-09-19T06:35:48;101635.50;;;21.49;100.00
36014;BME280;22275;43.208;27.620;2023-09-19T06:38:18;101616.91;;;21.76;100.00
36014;BME280;22275;43.208;27.620;2023-09-19T06:40:45;101600.22;;;22.11;100.00
36014;BME280;22275;43.208;27.620;2023-09-19T06:43:12;101626.25;;;22.57;100.00
36014;BME280;22275;43.208;27.620;2023-09-19T06:45:40;101630.63;;;22.67;100.00
36014;BME280;22275;43.208;27.620;2023-09-19T06:48:08;101632.19;;;22.51;100.00
36014;BME280;22275;43.208;27.620;2023-09-19T06:50:35;101573.94;;;22.14;100.00
36014;BME280;22275;43.208;27.620;2023-09-19T06:53:05;101594.84;;;22.20;100.00
36014;BME280;22275;43.208;27.620;2023-09-19T06:55:33;101606.84;;;22.72;100.00
36014;BME280;22275;43.208;27.620;2023-09-19T06:58:03;101618.34;;;23.47;100.00
36014;BME280;22275;43.208;27.620;2023-09-19T07:00:31;101620.38;;;23.35;100.00
36014;BME280;22275;43.208;27.620;2023-09-19T07:03:02;101589.81;;;23.54;100.00
36014;BME280;22275;43.208;27.620;2023-09-19T07:05:36;101616.34;;;23.21;100.00
36014;BME280;22275;43.208;27.620;2023-09-19T07:08:06;101561.72;;;23.03;100.00
36014;BME280;22275;43.208;27.620;2023-09-19T07:10:33;101600.56;;;23.71;100.00
36014;BME280;22275;43.208;27.620;2023-09-19T07:13:02;101589.22;;;24.03;100.00
36014;BME280;22275;43.208;27.620;2023-09-19T07:15:32;101588.38;;;24.20;100.00
36014;BME280;22275;43.208;27.620;2023-09-19T07:18:01;101628.88;;;24.70;100.00
36014;BME280;22275;43.208;27.620;2023-09-19T07:20:28;101595.09;;;24.84;100.00
36014;BME280;22275;43.208;27.620;2023-09-19T07:22:57;101575.28;;;24.93;100.00
36014;BME280;22275;43.208;27.620;2023-09-19T07:25:28;101594.38;;;25.15;100.00
36014;BME280;22275;43.208;27.620;2023-09-19T07:27:56;101567.56;;;25.06;100.00
36014;BME280;22275;43.208;27.620;2023-09-19T07:30:25;101597.09;;;25.32;100.00
36014;BME280;22275;43.208;27.620;2023-09-19T07:32:53;101521.75;;;25.22;100.00
36014;BME280;22275;43.208;27.620;2023-09-19T07:35:20;101601.72;;;25.71;100.00
36014;BME280;22275;43.208;27.620;2023-09-19T07:37:48;101582.84;;;25.88;100.00
36014;BME280;22275;43.208;27.620;2023-09-19T07:40:17;101547.41;;;25.99;100.00
36014;BME280;22275;43.208;27.620;2023-09-19T07:42:46;101553.63;;;26.07;100.00
36014;BME280;22275;43.208;27.620;2023-09-19T07:45:13;101589.94;;;26.05;100.00
36014;BME280;22275;43.208;27.620;2023-09-19T07:47:46;101579.81;;;25.99;100.00
36014;BME280;22275;43.208;27.620;2023-09-19T07:50:17;101582.34;;;25.92;100.00
36014;BME280;22275;43.208;27.620;2023-09-19T07:52:47;101565.97;;;26.18;100.00
36014;BME280;22275;43.208;27.620;2023-09-19T07:55:17;101582.31;;;26.00;100.00
36014;BME280;22275;43.208;27.620;2023-09-19T07:57:51;101549.09;;;25.92;100.00
36014;BME280;22275;43.208;27.620;2023-09-19T08:00:18;101555.19;;;25.94;100.00
36014;BME280;22275;43.208;27.620;2023-09-19T08:02:45;101569.63;;;26.41;100.00
36014;BME280;22275;43.208;27.620;2023-09-19T08:05:15;101568.25;;;26.45;100.00
36014;BME280;22275;43.208;27.620;2023-09-19T08:07:44;101562.84;;;26.53;100.00
36014;BME280;22275;43.208;27.620;2023-09-19T08:10:31;101535.81;;;26.45;100.00
36014;BME280;22275;43.208;27.620;2023-09-19T08:13:16;101515.13;;;26.30;100.00
36014;BME280;22275;43.208;27.620;2023-09-19T08:16:03;101512.22;;;26.39;100.00
36014;BME280;22275;43.208;27.620;2023-09-19T08:18:32;101439.72;;;26.43;100.00
36014;BME280;22275;43.208;27.620;2023-09-19T08:21:00;101539.44;;;27.07;100.00
36014;BME280;22275;43.208;27.620;2023-09-19T08:23:27;101544.00;;;27.07;100.00
36014;BME280;22275;43.208;27.620;2023-09-19T08:25:56;101543.53;;;27.26;100.00
36014;BME280;22275;43.208;27.620;2023-09-19T08:28:33;101541.88;;;26.94;100.00
36014;BME280;22275;43.208;27.620;2023-09-19T08:31:25;101485.13;;;26.55;100.00
36014;BME280;22275;43.208;27.620;2023-09-19T08:34:00;101531.28;;;26.85;100.00
36014;BME280;22275;43.208;27.620;2023-09-19T08:36:28;101514.44;;;26.66;100.00
36014;BME280;22275;43.208;27.620;2023-09-19T08:38:56;101518.22;;;26.88;100.00
36014;BME280;22275;43.208;27.620;2023-09-19T08:41:27;101522.56;;;26.66;100.00
36014;BME280;22275;43.208;27.620;2023-09-19T08:44:00;101427.22;;;26.11;100.00
36014;BME280;22275;43.208;27.620;2023-09-19T08:46:30;101506.28;;;26.82;100.00
36014;BME280;22275;43.208;27.620;2023-09-19T08:49:03;101513.88;;;26.87;100.00
36014;BME280;22275;43.208;27.620;2023-09-19T08:51:39;101470.25;;;26.90;100.00
36014;BME280;22275;43.208;27.620;2023-09-19T08:54:15;101500.03;;;26.82;100.00
36014;BME280;22275;43.208;27.620;2023-09-19T08:56:48;101474.56;;;26.38;100.00
36014;BME280;22275;43.208;27.620;2023-09-19T08:59:21;101491.44;;;26.78;100.00
36014;BME280;22275;43.208;27.620;2023-09-19T09:01:52;101484.00;;;26.72;100.00
36014;BME280;22275;43.208;27.620;2023-09-19T09:04:22;101485.69;;;26.81;100.00
36014;BME280;22275;43.208;27.620;2023-09-19T09:06:53;101476.88;;;26.79;100.00
36014;BME280;22275;43.208;27.620;2023-09-19T09:09:21;101488.63;;;26.95;100.00
36014;BME280;22275;43.208;27.620;2023-09-19T09:11:49;101472.47;;;27.09;100.00
36014;BME280;22275;43.208;27.620;2023-09-19T09:14:20;101481.59;;;26.86;100.00
36014;BME280;22275;43.208;27.620;2023-09-19T09:16:50;101419.13;;;26.72;100.00
36014;BME280;22275;43.208;27.620;2023-09-19T09:19:23;101469.03;;;27.61;100.00
36014;BME280;22275;43.208;27.620;2023-09-19T09:22:05;101460.34;;;27.65;100.00
36014;BME280;22275;43.208;27.620;2023-09-19T09:24:34;101445.13;;;27.27;100.00
36014;BME280;22275;43.208;27.620;2023-09-19T09:27:06;101454.00;;;27.35;100.00
36014;BME280;22275;43.208;27.620;2023-09-19T09:29:52;101456.75;;;27.50;100.00
36014;BME280;22275;43.208;27.620;2023-09-19T09:32:25;101462.16;;;27.50;100.00
36014;BME280;22275;43.208;27.620;2023-09-19T09:34:55;101445.00;;;27.43;100.00
36014;BME280;22275;43.208;27.620;2023-09-19T09:37:23;101445.78;;;27.29;100.00
36014;BME280;22275;43.208;27.620;2023-09-19T09:39:53;101430.88;;;27.10;100.00
36014;BME280;22275;43.208;27.620;2023-09-19T09:42:32;101456.94;;;27.26;100.00
36014;BME280;22275;43.208;27.620;2023-09-19T09:45:16;101442.94;;;27.00;100.00
36014;BME280;22275;43.208;27.620;2023-09-19T09:47:45;101430.75;;;27.04;100.00
36014;BME280;22275;43.208;27.620;2023-09-19T09:50:31;101455.56;;;27.30;100.00
36014;BME280;22275;43.208;27.620;2023-09-19T09:53:22;101442.47;;;27.42;100.00
36014;BME280;22275;43.208;27.620;2023-09-19T09:56:04;101442.03;;;27.67;100.00
36014;BME280;22275;43.208;27.620;2023-09-19T09:58:51;101426.34;;;27.48;100.00
36014;BME280;22275;43.208;27.620;2023-09-19T10:01:26;101440.50;;;27.50;100.00
36014;BME280;22275;43.208;27.620;2023-09-19T10:03:57;101350.56;;;26.96;100.00
36014;BME280;22275;43.208;27.620;2023-09-19T10:06:26;101424.69;;;27.76;100.00
36014;BME280;22275;43.208;27.620;2023-09-19T10:09:13;101374.81;;;27.56;100.00
36014;BME280;22275;43.208;27.620;2023-09-19T10:11:44;101423.03;;;27.75;100.00
36014;BME280;22275;43.208;27.620;2023-09-19T10:14:15;101406.28;;;27.72;100.00
36014;BME280;22275;43.208;27.620;2023-09-19T10:16:47;101430.00;;;27.84;100.00
36014;BME280;22275;43.208;27.620;2023-09-19T10:19:19;101326.06;;;27.27;100.00
36014;BME280;22275;43.208;27.620;2023-09-19T10:21:59;101428.81;;;27.72;100.00
36014;BME280;22275;43.208;27.620;2023-09-19T10:24:47;101405.75;;;28.06;100.00
36014;BME280;22275;43.208;27.620;2023-09-19T10:27:18;101421.00;;;28.07;100.00
36014;BME280;22275;43.208;27.620;2023-09-19T10:29:51;101414.28;;;28.38;100.00
36014;BME280;22275;43.208;27.620;2023-09-19T10:32:22;101420.53;;;28.39;100.00
36014;BME280;22275;43.208;27.620;2023-09-19T10:34:51;101397.72;;;28.12;100.00
36014;BME280;22275;43.208;27.620;2023-09-19T10:37:22;101386.03;;;28.12;100.00
36014;BME280;22275;43.208;27.620;2023-09-19T10:39:52;101370.88;;;28.53;100.00
36014;BME280;22275;43.208;27.620;2023-09-19T10:42:25;101392.00;;;28.58;100.00
36014;BME280;22275;43.208;27.620;2023-09-19T10:44:55;101391.09;;;28.15;100.00
36014;BME280;22275;43.208;27.620;2023-09-19T10:47:31;101399.56;;;28.26;100.00
36014;BME280;22275;43.208;27.620;2023-09-19T10:49:59;101364.84;;;28.36;100.00
36014;BME280;22275;43.208;27.620;2023-09-19T10:52:33;101379.25;;;28.37;100.00
36014;BME280;22275;43.208;27.620;2023-09-19T10:55:06;101327.88;;;28.29;100.00
36014;BME280;22275;43.208;27.620;2023-09-19T10:57:35;101368.09;;;28.46;100.00
36014;BME280;22275;43.208;27.620;2023-09-19T11:00:04;101386.63;;;28.43;100.00
36014;BME280;22275;43.208;27.620;2023-09-19T11:03:20;101379.16;;;28.30;100.00
36014;BME280;22275;43.208;27.620;2023-09-19T11:06:06;101375.03;;;27.69;100.00
36014;BME280;22275;43.208;27.620;2023-09-19T11:08:55;101380.88;;;28.02;100.00
36014;BME280;22275;43.208;27.620;2023-09-19T11:11:45;101359.31;;;28.09;100.00
36014;BME280;22275;43.208;27.620;2023-09-19T11:14:40;101367.44;;;28.23;100.00
36014;BME280;22275;43.208;27.620;2023-09-19T11:17:31;101337.66;;;27.79;100.00
36014;BME280;22275;43.208;27.620;2023-09-19T11:20:27;101365.47;;;27.73;100.00
36014;BME280;22275;43.208;27.620;2023-09-19T11:23:18;101341.69;;;27.69;100.00
36014;BME280;22275;43.208;27.620;2023-09-19T11:25:49;101363.06;;;27.78;100.00
36014;BME280;22275;43.208;27.620;2023-09-19T11:28:34;101367.38;;;27.58;100.00
36014;BME280;22275;43.208;27.620;2023-09-19T11:34:50;101334.69;;;27.74;100.00
36014;BME280;22275;43.208;27.620;2023-09-19T11:40:29;101345.50;;;27.45;100.00
36014;BME280;22275;43.208;27.620;2023-09-19T11:42:58;101348.78;;;27.70;100.00
36014;BME280;22275;43.208;27.620;2023-09-19T11:48:33;101349.41;;;28.01;100.00
36014;BME280;22275;43.208;27.620;2023-09-19T11:51:12;101326.94;;;28.22;100.00
36014;BME280;22275;43.208;27.620;2023-09-19T11:53:48;101322.94;;;28.32;100.00
36014;BME280;22275;43.208;27.620;2023-09-19T11:56:23;101292.53;;;28.01;100.00
36014;BME280;22275;43.208;27.620;2023-09-19T11:58:57;101332.78;;;28.40;100.00
36014;BME280;22275;43.208;27.620;2023-09-19T12:01:28;101319.88;;;28.21;100.00
36014;BME280;22275;43.208;27.620;2023-09-19T12:03:59;101316.19;;;27.78;100.00
36014;BME280;22275;43.208;27.620;2023-09-19T12:06:28;101314.00;;;28.03;100.00
36014;BME280;22275;43.208;27.620;2023-09-19T12:08:58;101337.16;;;28.20;100.00
36014;BME280;22275;43.208;27.620;2023-09-19T12:11:29;101290.84;;;28.00;100.00
36014;BME280;22275;43.208;27.620;2023-09-19T12:13:59;101283.78;;;27.84;100.00
36014;BME280;22275;43.208;27.620;2023-09-19T12:16:27;101231.19;;;27.93;100.00
36014;BME280;22275;43.208;27.620;2023-09-19T12:18:56;101313.16;;;28.17;100.00
36014;BME280;22275;43.208;27.620;2023-09-19T12:21:25;101310.34;;;28.10;100.00
36014;BME280;22275;43.208;27.620;2023-09-19T12:24:03;101245.03;;;28.20;100.00
36014;BME280;22275;43.208;27.620;2023-09-19T12:26:39;101317.78;;;28.80;100.00
36014;BME280;22275;43.208;27.620;2023-09-19T12:29:15;101307.56;;;28.61;100.00
36014;BME280;22275;43.208;27.620;2023-09-19T12:31:51;101302.53;;;28.01;100.00
36014;BME280;22275;43.208;27.620;2023-09-19T12:34:22;101299.84;;;28.22;100.00
36014;BME280;22275;43.208;27.620;2023-09-19T12:37:06;101298.25;;;27.77;100.00
36014;BME280;22275;43.208;27.620;2023-09-19T12:39:42;101315.53;;;27.76;100.00
36014;BME280;22275;43.208;27.620;2023-09-19T12:42:16;101269.63;;;27.68;100.00
36014;BME280;22275;43.208;27.620;2023-09-19T12:44:45;101293.13;;;27.82;100.00
36014;BME280;22275;43.208;27.620;2023-09-19T12:47:15;101297.53;;;27.68;100.00
36014;BME280;22275;43.208;27.620;2023-09-19T12:50:09;101305.59;;;27.47;100.00
36014;BME280;22275;43.208;27.620;2023-09-19T12:52:52;101306.00;;;27.80;100.00
36014;BME280;22275;43.208;27.620;2023-09-19T12:55:25;101304.63;;;27.69;100.00
36014;BME280;22275;43.208;27.620;2023-09-19T12:57:59;101278.06;;;27.44;100.00
36014;BME280;22275;43.208;27.620;2023-09-19T13:00:34;101285.03;;;27.38;100.00
36014;BME280;22275;43.208;27.620;2023-09-19T13:03:19;101302.59;;;27.42;100.00
36014;BME280;22275;43.208;27.620;2023-09-19T13:05:53;101306.09;;;27.28;100.00